Time;durP1;ratioP1;P1;durP2;ratioP2;P2;SDS_P1;SDS_P2;PMS_P1;PMS_P2;Temp;Humidity;BMP_temperature;BMP_pressure;BME280_temperature;BME280_humidity;BME280_pressure;Samples;Min_cycle;Max_cycle;Signal;HPM_P1;HPM_P2
2022/07/07 00:01:36;;;;;;;9.95;6.30;;;16.40;99.90;;;;;;5117597;27;20093;-67
2022/07/07 00:04:02;;;;;;;8.55;6.05;;;16.40;99.90;;;;;;5088486;28;20100;-68
2022/07/07 00:06:29;;;;;;;10.73;6.45;;;16.40;99.90;;;;;;5088528;28;20040;-67
2022/07/07 00:08:56;;;;;;;10.82;6.53;;;16.30;99.90;;;;;;5088914;28;20039;-68
2022/07/07 00:11:25;;;;;;;10.15;6.32;;;16.40;99.90;;;;;;5087531;28;20056;-68
2022/07/07 00:13:51;;;;;;;9.50;6.20;;;16.30;99.90;;;;;;5085348;28;20051;-68
2022/07/07 00:16:17;;;;;;;9.68;6.80;;;16.40;99.90;;;;;;5088583;28;20032;-68
2022/07/07 00:18:43;;;;;;;10.95;6.35;;;16.30;99.90;;;;;;5090727;28;20046;-67
2022/07/07 00:21:09;;;;;;;9.55;6.40;;;16.40;99.90;;;;;;5086270;28;20126;-68
2022/07/07 00:23:35;;;;;;;11.60;7.05;;;16.40;99.90;;;;;;5086501;28;20379;-67
2022/07/07 00:26:01;;;;;;;11.00;6.88;;;16.30;99.90;;;;;;5092183;28;20085;-67
2022/07/07 00:28:27;;;;;;;12.07;7.10;;;16.30;99.90;;;;;;5091671;28;20135;-67
2022/07/07 00:30:52;;;;;;;10.93;7.15;;;16.30;99.90;;;;;;5091541;28;20463;-67
2022/07/07 00:33:18;;;;;;;9.82;6.65;;;16.30;99.90;;;;;;5091870;28;21348;-68
2022/07/07 00:35:44;;;;;;;9.43;6.78;;;16.30;99.90;;;;;;5089966;28;20028;-68
2022/07/07 00:38:09;;;;;;;12.55;6.55;;;16.30;99.90;;;;;;5090552;28;20145;-67
2022/07/07 00:40:35;;;;;;;10.95;6.20;;;16.30;99.90;;;;;;5090359;28;20074;-68
2022/07/07 00:43:01;;;;;;;11.07;6.55;;;16.30;99.90;;;;;;5088479;28;20036;-67
2022/07/07 00:45:26;;;;;;;8.15;5.68;;;16.30;99.90;;;;;;5087647;28;20087;-67
2022/07/07 00:47:52;;;;;;;9.48;6.25;;;16.30;99.90;;;;;;5121785;27;20035;-67
2022/07/07 00:50:19;;;;;;;7.60;5.65;;;16.30;99.90;;;;;;5090618;28;20127;-67
2022/07/07 00:52:45;;;;;;;9.07;5.93;;;16.30;99.90;;;;;;5091744;28;20541;-67
2022/07/07 00:55:11;;;;;;;9.80;5.82;;;16.30;99.90;;;;;;5090878;28;20048;-68
2022/07/07 00:57:38;;;;;;;9.50;5.75;;;16.20;99.90;;;;;;5089371;28;20028;-68
2022/07/07 01:00:10;;;;;;;9.35;5.60;;;16.20;99.90;;;;;;5089735;28;20045;-67
2022/07/07 01:02:36;;;;;;;8.80;5.57;;;16.20;99.90;;;;;;5117041;27;20055;-67
2022/07/07 01:05:05;;;;;;;7.65;5.25;;;16.20;99.90;;;;;;5088706;28;20050;-67
2022/07/07 01:07:31;;;;;;;10.65;5.95;;;16.20;99.90;;;;;;5085699;28;20408;-68
2022/07/07 01:09:58;;;;;;;8.30;4.95;;;16.20;99.90;;;;;;5091613;28;20397;-68
2022/07/07 01:12:24;;;;;;;11.18;4.85;;;16.20;99.90;;;;;;5075491;28;20043;-68
2022/07/07 01:14:50;;;;;;;4.70;3.97;;;16.20;99.90;;;;;;5082603;28;20115;-67
2022/07/07 01:17:16;;;;;;;6.43;4.38;;;16.20;99.90;;;;;;5091954;28;20115;-68
2022/07/07 01:19:42;;;;;;;6.63;3.80;;;16.30;99.90;;;;;;5090149;28;20364;-67
2022/07/07 01:22:12;;;;;;;6.78;3.95;;;16.30;99.90;;;;;;5094780;28;20401;-67
2022/07/07 01:24:37;;;;;;;8.65;3.70;;;16.20;99.90;;;;;;5073361;28;20068;-67
2022/07/07 01:27:03;;;;;;;6.72;3.28;;;16.20;99.90;;;;;;5089646;28;20083;-68
2022/07/07 01:29:33;;;;;;;6.20;2.40;;;16.20;99.90;;;;;;5122681;27;20055;-68
2022/07/07 01:31:59;;;;;;;4.70;2.00;;;16.10;99.90;;;;;;5073402;28;20139;-67
2022/07/07 01:34:25;;;;;;;4.80;2.17;;;16.00;99.90;;;;;;5090465;28;20127;-67
2022/07/07 01:36:50;;;;;;;6.28;2.67;;;16.00;99.90;;;;;;5089449;28;20386;-67
2022/07/07 01:39:16;;;;;;;6.45;2.35;;;15.90;99.90;;;;;;5085503;28;20303;-67
2022/07/07 01:41:41;;;;;;;8.43;2.03;;;15.90;99.90;;;;;;5089590;28;20421;-68
2022/07/07 01:44:07;;;;;;;7.05;1.95;;;15.90;99.90;;;;;;5072593;28;20105;-68
2022/07/07 01:46:33;;;;;;;8.00;2.22;;;15.90;99.90;;;;;;5089246;28;20089;-67
2022/07/07 01:48:58;;;;;;;4.90;2.05;;;15.80;99.90;;;;;;5091359;28;20093;-68
2022/07/07 01:51:24;;;;;;;5.65;2.47;;;15.80;99.90;;;;;;5090631;28;20118;-67
2022/07/07 01:53:49;;;;;;;7.10;2.17;;;15.80;99.90;;;;;;5090588;28;20157;-68
2022/07/07 01:56:15;;;;;;;4.90;2.10;;;15.80;99.90;;;;;;5090440;28;20039;-67
2022/07/07 01:58:41;;;;;;;4.97;2.25;;;15.70;99.90;;;;;;5073062;28;20058;-67
2022/07/07 02:01:06;;;;;;;3.83;2.03;;;15.70;99.90;;;;;;5091644;28;20036;-67
2022/07/07 02:03:32;;;;;;;5.35;1.95;;;15.70;99.90;;;;;;5089914;28;20032;-67
2022/07/07 02:05:58;;;;;;;4.20;2.20;;;15.70;99.90;;;;;;5087467;28;20052;-67
2022/07/07 02:08:23;;;;;;;4.80;2.38;;;15.70;99.90;;;;;;5088678;28;20044;-66
2022/07/07 02:13:33;;;;;;;4.80;1.70;;;15.70;99.90;;;;;;5090410;28;20512;-67
2022/07/07 02:15:58;;;;;;;2.67;1.88;;;15.60;99.90;;;;;;5088617;28;20071;-68
2022/07/07 02:18:24;;;;;;;5.00;1.90;;;15.60;99.90;;;;;;5088439;28;20046;-68
2022/07/07 02:20:50;;;;;;;3.60;1.75;;;15.60;99.90;;;;;;5119951;27;20127;-67
2022/07/07 02:23:15;;;;;;;3.28;1.63;;;15.60;99.90;;;;;;5089631;28;20051;-67
2022/07/07 02:25:41;;;;;;;3.22;1.80;;;15.60;99.90;;;;;;5089101;28;20127;-68
2022/07/07 02:28:06;;;;;;;5.43;2.20;;;15.60;99.90;;;;;;5087307;28;20059;-67
2022/07/07 02:30:32;;;;;;;5.63;2.13;;;15.60;99.90;;;;;;5085918;28;20434;-67
2022/07/07 02:32:58;;;;;;;3.97;2.03;;;15.60;99.90;;;;;;5123254;27;20036;-67
2022/07/07 02:35:23;;;;;;;4.90;1.90;;;15.60;99.90;;;;;;5090088;28;20032;-68
2022/07/07 02:37:49;;;;;;;4.47;2.40;;;15.50;99.90;;;;;;5091114;28;20067;-67
2022/07/07 02:40:15;;;;;;;5.22;2.17;;;15.60;99.90;;;;;;5086935;28;20046;-67
2022/07/07 02:42:40;;;;;;;3.72;2.08;;;15.60;99.90;;;;;;5084911;28;20062;-67
2022/07/07 02:45:06;;;;;;;5.03;2.42;;;15.60;99.90;;;;;;5089093;28;20430;-68
2022/07/07 02:47:32;;;;;;;5.63;2.20;;;15.60;99.90;;;;;;5119776;27;20042;-68
2022/07/07 02:49:58;;;;;;;3.10;2.17;;;15.60;99.90;;;;;;5088373;28;20036;-67
2022/07/07 02:52:23;;;;;;;3.92;2.45;;;15.60;99.90;;;;;;5104651;27;20044;-68
2022/07/07 02:54:49;;;;;;;4.38;2.15;;;15.60;99.90;;;;;;5089624;28;20115;-68
2022/07/07 02:57:15;;;;;;;3.65;2.50;;;15.60;99.90;;;;;;5086654;28;20124;-68
2022/07/07 02:59:40;;;;;;;4.68;2.05;;;15.60;99.90;;;;;;5087642;28;20386;-67
2022/07/07 03:02:06;;;;;;;5.03;2.25;;;15.60;99.90;;;;;;5068833;28;20048;-67
2022/07/07 03:04:31;;;;;;;9.55;2.00;;;15.60;99.90;;;;;;5067521;28;20088;-67
2022/07/07 03:06:57;;;;;;;6.82;1.85;;;15.60;99.90;;;;;;5086649;28;20414;-68
2022/07/07 03:09:23;;;;;;;5.80;1.60;;;15.60;99.90;;;;;;5085954;28;20490;-67
2022/07/07 03:11:48;;;;;;;6.10;2.00;;;15.60;99.90;;;;;;5087224;28;20079;-67
2022/07/07 03:14:14;;;;;;;5.43;1.60;;;15.70;99.90;;;;;;5080753;28;20039;-67
2022/07/07 03:16:40;;;;;;;5.45;2.15;;;15.60;99.90;;;;;;5078530;28;20040;-67
2022/07/07 03:19:05;;;;;;;7.60;1.80;;;15.60;99.90;;;;;;5119419;27;20051;-67
2022/07/07 03:21:31;;;;;;;7.22;2.08;;;15.60;99.90;;;;;;5087853;28;20150;-67
2022/07/07 03:23:56;;;;;;;9.05;1.83;;;15.60;99.90;;;;;;5088576;28;20497;-66
2022/07/07 03:26:22;;;;;;;7.18;2.20;;;15.60;99.90;;;;;;5090431;28;20032;-67
2022/07/07 03:28:48;;;;;;;8.93;1.70;;;15.60;99.90;;;;;;5087377;28;20048;-67
2022/07/07 03:31:13;;;;;;;5.57;1.60;;;15.60;99.90;;;;;;5079910;28;20063;-67
2022/07/07 03:33:39;;;;;;;6.10;1.45;;;15.60;99.90;;;;;;5112270;27;20056;-68
2022/07/07 03:36:05;;;;;;;4.72;1.40;;;15.60;99.90;;;;;;5084908;28;20044;-68
2022/07/07 03:38:31;;;;;;;8.73;1.65;;;15.60;99.90;;;;;;5086970;28;20107;-67
2022/07/07 03:40:56;;;;;;;5.95;1.20;;;15.50;99.90;;;;;;5086898;28;20123;-68
2022/07/07 03:43:22;;;;;;;4.00;1.20;;;15.50;99.90;;;;;;5068461;28;20051;-67
2022/07/07 03:45:49;;;;;;;7.22;1.60;;;15.60;99.90;;;;;;5068593;28;20055;-67
2022/07/07 03:48:14;;;;;;;6.93;1.73;;;15.50;99.90;;;;;;5085954;28;20498;-67
2022/07/07 03:50:40;;;;;;;6.50;1.20;;;15.60;99.90;;;;;;5087720;28;20048;-67
2022/07/07 03:53:05;;;;;;;7.50;1.30;;;15.50;99.90;;;;;;5090795;28;20387;-67
2022/07/07 03:55:31;;;;;;;8.98;1.58;;;15.50;99.90;;;;;;5083963;28;20083;-67
2022/07/07 03:57:57;;;;;;;4.45;1.23;;;15.50;99.90;;;;;;5117428;28;20063;-67
2022/07/07 04:00:22;;;;;;;5.63;1.35;;;15.50;99.90;;;;;;5085718;28;20039;-67
2022/07/07 04:02:48;;;;;;;6.60;1.65;;;15.50;99.90;;;;;;5114955;28;20508;-67
2022/07/07 04:05:13;;;;;;;6.32;1.30;;;15.50;99.90;;;;;;5086097;28;20411;-68
2022/07/07 04:07:39;;;;;;;6.20;1.40;;;15.50;99.90;;;;;;5119996;27;20089;-68
2022/07/07 04:10:05;;;;;;;6.45;1.40;;;15.50;99.90;;;;;;5086977;28;20120;-68
2022/07/07 04:12:31;;;;;;;5.85;1.30;;;15.50;99.90;;;;;;5086126;28;20053;-68
2022/07/07 04:14:57;;;;;;;6.70;1.35;;;15.60;99.90;;;;;;5083900;28;20054;-68
2022/07/07 04:17:22;;;;;;;8.05;1.52;;;15.50;99.90;;;;;;5086340;28;20635;-67
2022/07/07 04:19:48;;;;;;;6.28;1.20;;;15.50;99.90;;;;;;5118832;28;20036;-68
2022/07/07 04:22:13;;;;;;;4.00;1.00;;;15.50;99.90;;;;;;5070081;28;20052;-67
2022/07/07 04:24:39;;;;;;;7.03;1.10;;;15.40;99.90;;;;;;5085463;28;20508;-68
2022/07/07 04:27:05;;;;;;;5.10;1.52;;;15.50;99.90;;;;;;5086079;28;20137;-68
2022/07/07 04:29:31;;;;;;;3.90;1.05;;;15.40;99.90;;;;;;5083963;28;20092;-66
2022/07/07 04:31:57;;;;;;;7.82;1.55;;;15.40;99.90;;;;;;5117923;28;20052;-66
2022/07/07 04:34:22;;;;;;;5.55;1.10;;;15.40;99.90;;;;;;5088735;28;20131;-66
2022/07/07 04:36:48;;;;;;;6.32;1.25;;;15.40;99.90;;;;;;5088097;28;20506;-68
2022/07/07 04:39:14;;;;;;;6.90;0.98;;;15.40;99.90;;;;;;5084667;28;20047;-67
2022/07/07 04:41:39;;;;;;;6.85;1.20;;;15.40;99.90;;;;;;5102359;28;20036;-68
2022/07/07 04:44:05;;;;;;;7.85;1.13;;;15.40;99.90;;;;;;5087208;28;20930;-67
2022/07/07 04:46:32;;;;;;;5.57;1.20;;;15.30;99.90;;;;;;5086783;28;20047;-67
2022/07/07 04:48:57;;;;;;;5.93;1.35;;;15.40;99.90;;;;;;5084422;28;20604;-68
2022/07/07 04:51:23;;;;;;;6.25;1.13;;;15.30;99.90;;;;;;5091456;28;20044;-67
2022/07/07 04:53:49;;;;;;;5.18;1.35;;;15.30;99.90;;;;;;5091800;28;20044;-68
2022/07/07 04:56:15;;;;;;;4.55;0.95;;;15.30;99.90;;;;;;5090654;28;20031;-66
2022/07/07 04:58:41;;;;;;;5.90;1.00;;;15.30;99.90;;;;;;5092569;28;20115;-66
2022/07/07 05:01:08;;;;;;;4.38;0.75;;;15.30;99.90;;;;;;5093162;28;20121;-65
2022/07/07 05:03:33;;;;;;;4.97;0.85;;;15.30;99.90;;;;;;5094293;28;20082;-69
2022/07/07 05:05:59;;;;;;;5.88;1.35;;;15.30;99.90;;;;;;5080578;28;20040;-66
2022/07/07 05:08:25;;;;;;;4.38;1.15;;;15.30;99.90;;;;;;5091531;28;20043;-66
2022/07/07 05:10:51;;;;;;;6.82;1.10;;;15.30;99.90;;;;;;5083325;28;20130;-64
2022/07/07 05:13:17;;;;;;;6.25;0.80;;;15.30;99.90;;;;;;5094495;28;20032;-65
2022/07/07 05:15:42;;;;;;;3.83;0.75;;;15.30;99.90;;;;;;5086425;28;20048;-65
2022/07/07 05:18:09;;;;;;;4.28;1.00;;;15.30;99.90;;;;;;5120957;27;20042;-66
2022/07/07 05:20:34;;;;;;;3.65;0.60;;;15.30;99.90;;;;;;5090630;28;20130;-66
2022/07/07 05:23:00;;;;;;;6.45;0.98;;;15.30;99.90;;;;;;5092010;28;20044;-65
2022/07/07 05:25:26;;;;;;;7.88;1.10;;;15.30;99.90;;;;;;5090019;28;20097;-65
2022/07/07 05:27:53;;;;;;;6.75;0.80;;;15.30;99.90;;;;;;5088696;28;20494;-64
2022/07/07 05:30:19;;;;;;;4.10;0.80;;;15.40;99.90;;;;;;5084785;28;21203;-65
2022/07/07 05:32:45;;;;;;;6.00;1.10;;;15.40;99.90;;;;;;5089898;28;20071;-67
2022/07/07 05:35:10;;;;;;;7.97;1.00;;;15.50;99.90;;;;;;5089869;28;20063;-67
2022/07/07 05:37:36;;;;;;;5.50;1.27;;;15.60;99.90;;;;;;5086521;28;20368;-66
2022/07/07 05:40:02;;;;;;;6.40;1.10;;;15.80;99.90;;;;;;5086685;28;20046;-66
2022/07/07 05:42:28;;;;;;;7.63;1.30;;;15.80;99.90;;;;;;5090945;28;20040;-67
2022/07/07 05:44:54;;;;;;;8.90;2.00;;;15.90;99.90;;;;;;5091284;28;20093;-67
2022/07/07 05:47:19;;;;;;;6.57;2.13;;;15.90;99.90;;;;;;5091189;28;20032;-66
2022/07/07 05:49:45;;;;;;;9.23;1.17;;;16.00;99.90;;;;;;5092065;28;20036;-66
2022/07/07 05:52:10;;;;;;;6.63;1.45;;;16.00;99.90;;;;;;5090025;28;20376;-67
2022/07/07 05:54:36;;;;;;;6.55;1.40;;;16.00;99.90;;;;;;5091090;28;20051;-66
2022/07/07 05:57:02;;;;;;;8.70;1.52;;;15.90;99.90;;;;;;5089457;28;20060;-66
2022/07/07 05:59:27;;;;;;;5.75;1.15;;;15.80;99.90;;;;;;5120179;27;20044;-66
2022/07/07 06:01:53;;;;;;;5.88;1.23;;;15.90;99.90;;;;;;5089507;28;20044;-66
2022/07/07 06:04:18;;;;;;;8.50;1.38;;;16.00;99.90;;;;;;5090859;28;20113;-67
2022/07/07 06:06:44;;;;;;;10.35;1.48;;;16.10;99.90;;;;;;5089133;28;20116;-67
2022/07/07 06:09:10;;;;;;;6.90;1.48;;;16.20;99.90;;;;;;5088854;28;20052;-66
2022/07/07 06:11:36;;;;;;;7.22;1.45;;;16.40;99.90;;;;;;5089790;28;20048;-65
2022/07/07 06:14:02;;;;;;;6.88;1.65;;;16.50;99.90;;;;;;5091155;28;20794;-67
2022/07/07 06:16:40;;;;;;;4.18;1.00;;;16.60;99.90;;;;;;5090652;28;20047;-66
2022/07/07 06:19:10;;;;;;;5.88;1.10;;;16.80;99.90;;;;;;5090317;28;20040;-66
2022/07/07 06:21:37;;;;;;;9.43;1.50;;;16.80;99.90;;;;;;5090106;28;20056;-65
2022/07/07 06:24:04;;;;;;;10.45;1.55;;;16.80;99.90;;;;;;5091026;28;20482;-66
2022/07/07 06:26:29;;;;;;;6.03;1.50;;;16.80;99.90;;;;;;5090410;28;20055;-66
2022/07/07 06:28:55;;;;;;;7.20;1.35;;;16.70;99.90;;;;;;5090118;28;20509;-67
2022/07/07 06:31:21;;;;;;;8.02;1.50;;;16.70;99.90;;;;;;5091303;28;20372;-68
2022/07/07 06:33:46;;;;;;;5.40;0.98;;;16.70;99.90;;;;;;5093400;28;20105;-67
2022/07/07 06:36:12;;;;;;;6.88;1.27;;;16.70;99.90;;;;;;5089959;28;20135;-66
2022/07/07 06:38:38;;;;;;;6.07;1.50;;;16.70;99.90;;;;;;5092909;28;20028;-67
2022/07/07 06:41:03;;;;;;;4.90;1.08;;;16.70;99.90;;;;;;5121911;27;20058;-67
2022/07/07 06:43:29;;;;;;;5.45;1.10;;;16.90;99.90;;;;;;5089361;28;20055;-66
2022/07/07 06:45:55;;;;;;;4.82;1.60;;;17.10;99.90;;;;;;5091470;28;20035;-66
2022/07/07 06:48:20;;;;;;;6.88;1.00;;;17.30;99.90;;;;;;5089996;28;20399;-67
2022/07/07 06:50:46;;;;;;;6.43;1.08;;;17.40;99.90;;;;;;5092447;28;20047;-66
2022/07/07 06:53:12;;;;;;;6.22;1.33;;;17.30;99.90;;;;;;5090122;28;20394;-66
2022/07/07 06:55:38;;;;;;;3.95;0.70;;;17.40;99.90;;;;;;5089708;28;20040;-67
2022/07/07 06:58:03;;;;;;;3.70;0.98;;;17.30;99.90;;;;;;5091169;28;20047;-66
2022/07/07 07:00:30;;;;;;;5.93;1.15;;;17.20;99.90;;;;;;5121856;27;20115;-66
2022/07/07 07:02:56;;;;;;;6.65;0.90;;;17.10;99.90;;;;;;5089780;28;20032;-66
2022/07/07 07:05:22;;;;;;;4.63;0.88;;;17.00;99.90;;;;;;5089451;28;20552;-66
2022/07/07 07:07:48;;;;;;;5.25;1.23;;;16.80;99.90;;;;;;5091071;28;20398;-66
2022/07/07 07:10:14;;;;;;;5.63;1.15;;;16.80;99.90;;;;;;5090585;28;20110;-66
2022/07/07 07:12:40;;;;;;;7.43;1.10;;;16.90;99.90;;;;;;5123313;27;20367;-66
2022/07/07 07:15:07;;;;;;;4.88;0.90;;;17.10;99.90;;;;;;5089609;28;20044;-66
2022/07/07 07:17:33;;;;;;;4.43;0.90;;;17.30;99.90;;;;;;5089511;28;20494;-66
2022/07/07 07:19:59;;;;;;;3.92;0.88;;;17.30;99.90;;;;;;5088079;28;20394;-65
2022/07/07 07:22:27;;;;;;;3.28;0.70;;;17.20;99.90;;;;;;5091504;28;20032;-65
2022/07/07 07:24:52;;;;;;;5.47;1.48;;;17.20;99.90;;;;;;5091319;28;20071;-67
2022/07/07 07:27:18;;;;;;;5.93;1.02;;;17.20;99.90;;;;;;5087770;28;20087;-66
2022/07/07 07:29:44;;;;;;;5.35;1.17;;;17.10;99.90;;;;;;5089142;28;20044;-66
2022/07/07 07:32:09;;;;;;;3.38;0.50;;;17.00;99.90;;;;;;5091227;28;20040;-67
2022/07/07 07:34:35;;;;;;;2.20;0.60;;;16.90;99.90;;;;;;5072575;28;20051;-66
2022/07/07 07:37:01;;;;;;;2.85;0.60;;;16.80;99.90;;;;;;5117071;27;20044;-66
2022/07/07 07:39:27;;;;;;;5.32;0.75;;;16.70;99.90;;;;;;5089239;28;20100;-66
2022/07/07 07:41:52;;;;;;;1.58;0.40;;;16.70;99.90;;;;;;5088979;28;20112;-66
2022/07/07 07:47:03;;;;;;;3.42;0.60;;;16.90;99.90;;;;;;5089255;28;20044;-67
2022/07/07 07:49:28;;;;;;;3.10;0.60;;;17.10;99.90;;;;;;5123448;27;20036;-67
2022/07/07 07:51:54;;;;;;;4.07;0.63;;;17.20;99.90;;;;;;5088551;28;20448;-66
2022/07/07 07:54:19;;;;;;;2.72;0.60;;;17.30;99.90;;;;;;5089673;28;20036;-67
2022/07/07 07:56:45;;;;;;;4.93;0.65;;;17.30;99.90;;;;;;5090241;28;20035;-67
2022/07/07 07:59:10;;;;;;;6.75;0.80;;;17.40;99.90;;;;;;5088984;28;20039;-67
2022/07/07 08:01:36;;;;;;;8.40;1.48;;;17.40;99.90;;;;;;5090193;28;20086;-67
2022/07/07 08:04:02;;;;;;;3.65;0.90;;;17.50;99.90;;;;;;5090106;28;20505;-67
2022/07/07 08:06:28;;;;;;;2.85;0.70;;;17.30;99.90;;;;;;5089109;28;20470;-67
2022/07/07 08:08:53;;;;;;;3.92;1.13;;;17.20;99.90;;;;;;5087931;28;20048;-67
2022/07/07 08:11:19;;;;;;;5.35;1.20;;;17.10;99.90;;;;;;5088780;28;20064;-68
2022/07/07 08:13:45;;;;;;;4.38;1.17;;;17.20;99.90;;;;;;5089058;28;20604;-67
2022/07/07 08:16:10;;;;;;;4.95;1.30;;;17.30;99.90;;;;;;5120434;28;20092;-67
2022/07/07 08:18:36;;;;;;;3.63;1.00;;;17.40;99.90;;;;;;5087097;28;20395;-67
2022/07/07 08:21:02;;;;;;;2.85;1.00;;;17.40;99.90;;;;;;5089913;28;20040;-67
2022/07/07 08:23:27;;;;;;;4.28;1.17;;;17.50;99.90;;;;;;5091980;28;20126;-67
2022/07/07 08:25:54;;;;;;;5.72;1.35;;;17.50;99.90;;;;;;5092711;28;20047;-66
2022/07/07 08:28:19;;;;;;;3.53;0.90;;;17.50;99.90;;;;;;5092630;28;20083;-66
2022/07/07 08:30:45;;;;;;;2.30;0.68;;;17.40;99.90;;;;;;5092508;28;20511;-68
2022/07/07 08:33:12;;;;;;;5.32;1.10;;;17.70;99.90;;;;;;5092691;28;20063;-67
2022/07/07 08:35:37;;;;;;;5.47;0.85;;;18.00;99.90;;;;;;5074505;28;20064;-66
2022/07/07 08:38:03;;;;;;;3.40;0.77;;;18.20;99.90;;;;;;5090830;28;20505;-63
2022/07/07 08:40:29;;;;;;;3.17;0.70;;;18.20;99.90;;;;;;5093412;28;20028;-64
2022/07/07 08:42:55;;;;;;;2.10;0.50;;;18.30;99.90;;;;;;5093607;28;20036;-65
2022/07/07 08:45:20;;;;;;;2.88;0.70;;;18.10;99.90;;;;;;5092394;28;20071;-65
2022/07/07 08:47:46;;;;;;;2.58;0.70;;;18.00;99.90;;;;;;5090655;28;20100;-65
2022/07/07 08:50:12;;;;;;;2.60;0.60;;;17.90;99.90;;;;;;5091901;28;20044;-64
2022/07/07 08:52:39;;;;;;;4.05;1.13;;;17.90;99.90;;;;;;5091993;28;20080;-64
2022/07/07 08:55:07;;;;;;;4.82;0.70;;;17.80;99.90;;;;;;5091882;28;20048;-65
2022/07/07 08:57:34;;;;;;;2.67;0.65;;;17.70;99.90;;;;;;5091747;28;20071;-66
2022/07/07 08:59:59;;;;;;;4.75;1.00;;;17.80;99.90;;;;;;5090982;28;20036;-64
2022/07/07 09:02:25;;;;;;;5.30;0.88;;;17.80;99.90;;;;;;5092065;28;20039;-64
2022/07/07 09:04:51;;;;;;;4.55;1.00;;;17.80;99.90;;;;;;5092036;28;20043;-64
2022/07/07 09:07:18;;;;;;;3.55;0.73;;;17.80;99.90;;;;;;5091821;28;20076;-65
2022/07/07 09:09:46;;;;;;;4.32;0.80;;;18.00;99.90;;;;;;5090280;28;20039;-65
2022/07/07 09:12:14;;;;;;;5.68;0.93;;;18.20;99.90;;;;;;5071916;28;20040;-66
2022/07/07 09:14:48;;;;;;;4.32;1.33;;;18.50;99.90;;;;;;5091396;28;20503;-66
2022/07/07 09:17:26;;;;;;;4.32;0.80;;;18.60;99.90;;;;;;5091529;28;20092;-66
2022/07/07 09:20:07;;;;;;;3.33;1.08;;;18.50;99.90;;;;;;5089404;28;20051;-66
2022/07/07 09:22:50;;;;;;;4.30;0.98;;;18.40;99.90;;;;;;5082136;28;20131;-66
2022/07/07 09:25:21;;;;;;;3.90;0.98;;;18.20;99.90;;;;;;5087419;28;20043;-65
2022/07/07 09:27:50;;;;;;;3.92;0.63;;;18.10;99.90;;;;;;5090586;28;20058;-65
2022/07/07 09:30:40;;;;;;;5.43;0.98;;;18.00;99.90;;;;;;5120392;27;20062;-64
2022/07/07 09:33:23;;;;;;;4.03;0.90;;;17.90;99.90;;;;;;5089486;28;20051;-64
2022/07/07 09:38:36;;;;;;;6.47;0.90;;;18.00;99.90;;;;;;5089419;28;20040;-64
2022/07/07 09:41:10;;;;;;;5.45;1.27;;;18.30;99.90;;;;;;5091154;28;20048;-64
2022/07/07 09:43:49;;;;;;;4.78;0.90;;;18.70;99.90;;;;;;5091177;28;20395;-65
2022/07/07 09:46:23;;;;;;;2.90;1.45;;;18.90;99.90;;;;;;5088099;28;20040;-65
2022/07/07 09:48:56;;;;;;;7.18;1.65;;;18.80;99.90;;;;;;5090679;28;20040;-65
2022/07/07 09:51:27;;;;;;;4.13;0.98;;;18.60;99.90;;;;;;5090893;28;20051;-64
2022/07/07 09:54:00;;;;;;;4.57;1.00;;;18.20;99.90;;;;;;5088802;28;20490;-65
2022/07/07 09:56:39;;;;;;;3.30;0.82;;;17.80;99.90;;;;;;5073709;28;20036;-64
2022/07/07 09:59:16;;;;;;;3.17;0.95;;;17.50;99.90;;;;;;5091095;28;20044;-64
2022/07/07 10:01:44;;;;;;;3.05;0.98;;;17.30;99.90;;;;;;5090834;28;20122;-65
2022/07/07 10:04:13;;;;;;;2.97;1.00;;;17.30;99.90;;;;;;5089798;28;20046;-64
2022/07/07 10:06:41;;;;;;;4.68;1.02;;;17.40;99.90;;;;;;5090644;28;20052;-64
2022/07/07 10:09:18;;;;;;;4.43;1.13;;;17.50;99.90;;;;;;5090607;28;20414;-64
2022/07/07 10:11:46;;;;;;;8.85;1.48;;;17.80;99.90;;;;;;5084854;28;20047;-64
2022/07/07 10:14:13;;;;;;;3.95;1.00;;;18.00;99.90;;;;;;5090262;28;20401;-64
2022/07/07 10:16:40;;;;;;;4.78;1.15;;;17.90;99.90;;;;;;5089989;28;20039;-64
2022/07/07 10:19:09;;;;;;;4.15;1.05;;;17.70;99.90;;;;;;5090158;28;20052;-64
2022/07/07 10:21:35;;;;;;;5.10;0.90;;;17.50;99.90;;;;;;5088677;28;20044;-64
2022/07/07 10:24:01;;;;;;;2.75;0.90;;;17.20;99.90;;;;;;5090429;28;20147;-64
2022/07/07 10:26:42;;;;;;;3.55;0.90;;;17.10;99.90;;;;;;5088008;28;20043;-64
2022/07/07 10:29:09;;;;;;;4.05;1.00;;;17.10;99.90;;;;;;5073354;28;20056;-64
2022/07/07 10:31:36;;;;;;;4.28;1.15;;;17.20;99.90;;;;;;5091754;28;20470;-64
2022/07/07 10:34:12;;;;;;;4.40;0.80;;;17.20;99.90;;;;;;5090453;28;20482;-64
2022/07/07 10:36:50;;;;;;;5.13;1.40;;;17.50;99.90;;;;;;5088382;28;20471;-64
2022/07/07 10:39:27;;;;;;;4.45;0.90;;;17.90;99.90;;;;;;5070795;28;20399;-64
2022/07/07 10:42:07;;;;;;;3.33;0.80;;;17.70;99.90;;;;;;5089387;28;20047;-64
2022/07/07 10:44:35;;;;;;;2.40;0.88;;;17.50;99.90;;;;;;5090108;28;20414;-65
2022/07/07 10:47:13;;;;;;;3.67;1.00;;;17.30;99.90;;;;;;5123284;27;20047;-65
2022/07/07 10:49:57;;;;;;;4.43;0.88;;;17.20;99.90;;;;;;5106528;28;20115;-65
2022/07/07 10:52:27;;;;;;;4.85;1.02;;;17.20;99.90;;;;;;5089739;28;20040;-65
2022/07/07 10:54:59;;;;;;;3.80;0.80;;;17.30;99.90;;;;;;5089109;28;20051;-64
2022/07/07 10:57:38;;;;;;;2.72;0.80;;;17.40;99.90;;;;;;5088692;28;20036;-64
2022/07/07 11:00:09;;;;;;;3.25;0.93;;;17.70;99.90;;;;;;5071584;28;20045;-66
2022/07/07 11:02:37;;;;;;;8.18;1.17;;;17.90;99.90;;;;;;5089646;28;20495;-65
2022/07/07 11:05:09;;;;;;;7.53;1.20;;;17.70;99.90;;;;;;5089502;28;20099;-65
2022/07/07 11:07:35;;;;;;;10.10;1.65;;;17.30;99.90;;;;;;5121398;27;20389;-65
2022/07/07 11:10:07;;;;;;;7.97;1.40;;;17.00;99.90;;;;;;5088990;28;20051;-65
2022/07/07 11:12:53;;;;;;;6.93;2.00;;;16.70;99.90;;;;;;5088040;28;20101;-66
2022/07/07 11:15:21;;;;;;;8.98;1.70;;;16.70;99.90;;;;;;5086310;28;20060;-65
2022/07/07 11:17:53;;;;;;;11.10;1.73;;;16.70;99.90;;;;;;5088203;28;20047;-65
2022/07/07 11:20:25;;;;;;;10.00;1.77;;;16.80;99.90;;;;;;5089331;28;20104;-65
2022/07/07 11:22:52;;;;;;;7.97;1.60;;;16.90;99.90;;;;;;5088066;28;20396;-65
2022/07/07 11:25:20;;;;;;;8.00;2.08;;;17.00;99.90;;;;;;5087306;28;20040;-65
2022/07/07 11:27:48;;;;;;;9.63;1.80;;;17.10;99.90;;;;;;5088682;28;20150;-64
2022/07/07 11:30:14;;;;;;;10.68;2.30;;;17.10;99.90;;;;;;5086593;28;20036;-65
2022/07/07 11:32:42;;;;;;;7.30;1.30;;;17.00;99.90;;;;;;5089540;28;20444;-63
2022/07/07 11:35:10;;;;;;;8.27;1.80;;;17.00;99.90;;;;;;5088260;28;20036;-64
2022/07/07 11:37:37;;;;;;;13.15;1.92;;;17.00;99.90;;;;;;5086737;28;20039;-65
2022/07/07 11:40:12;;;;;;;7.55;1.75;;;17.00;99.90;;;;;;5089511;28;20060;-64
2022/07/07 11:42:39;;;;;;;10.35;2.22;;;17.00;99.90;;;;;;5086928;28;20073;-65
2022/07/07 11:45:17;;;;;;;11.57;1.98;;;17.00;99.90;;;;;;5088525;28;20039;-64
2022/07/07 11:47:43;;;;;;;10.40;2.10;;;17.00;99.90;;;;;;5086172;28;20103;-65
2022/07/07 11:50:10;;;;;;;17.38;2.83;;;16.90;99.90;;;;;;5088622;28;20129;-65
2022/07/07 11:52:35;;;;;;;15.35;2.88;;;16.90;99.90;;;;;;5082979;28;20048;-64
2022/07/07 11:55:05;;;;;;;12.32;2.08;;;16.90;99.90;;;;;;5122861;27;20051;-65
2022/07/07 11:57:33;;;;;;;9.90;1.80;;;17.10;99.90;;;;;;5086224;28;20543;-64
2022/07/07 12:00:20;;;;;;;11.85;2.42;;;17.20;99.90;;;;;;5086409;28;20040;-65
2022/07/07 12:02:48;;;;;;;15.02;2.10;;;17.30;99.90;;;;;;5088401;28;20048;-65
2022/07/07 12:05:38;;;;;;;15.48;1.95;;;17.30;99.90;;;;;;5087601;28;20495;-65
2022/07/07 12:08:09;;;;;;;9.60;1.80;;;17.30;99.90;;;;;;5070234;28;20072;-64
2022/07/07 12:10:37;;;;;;;11.32;1.77;;;17.30;99.90;;;;;;5085566;28;20105;-64
2022/07/07 12:13:11;;;;;;;9.85;1.85;;;17.30;99.90;;;;;;5088767;28;20048;-65
2022/07/07 12:15:48;;;;;;;7.18;1.75;;;17.30;99.90;;;;;;5072652;28;20033;-64
2022/07/07 12:18:30;;;;;;;10.05;1.80;;;17.40;99.90;;;;;;5088790;28;20043;-66
2022/07/07 12:21:07;;;;;;;7.13;1.48;;;17.50;99.90;;;;;;5086716;28;20483;-65
2022/07/07 12:23:38;;;;;;;10.82;2.00;;;17.40;99.90;;;;;;5088939;28;20101;-65
2022/07/07 12:26:26;;;;;;;7.28;1.60;;;17.40;99.90;;;;;;5088799;28;20043;-65
2022/07/07 12:29:01;;;;;;;10.80;2.08;;;17.50;99.90;;;;;;5084067;28;20070;-65
2022/07/07 12:31:27;;;;;;;9.10;1.50;;;17.50;99.90;;;;;;5088590;28;20482;-65
2022/07/07 12:33:52;;;;;;;9.20;1.45;;;17.50;99.90;;;;;;5122958;28;20051;-65
2022/07/07 12:36:27;;;;;;;9.02;1.73;;;17.40;99.90;;;;;;5105530;28;20495;-65
2022/07/07 12:38:58;;;;;;;8.25;2.15;;;17.40;99.90;;;;;;5123064;28;20444;-65
2022/07/07 12:41:29;;;;;;;9.97;1.57;;;17.40;99.90;;;;;;5121307;28;20105;-65
2022/07/07 12:44:22;;;;;;;11.75;2.13;;;17.60;99.90;;;;;;5088825;28;20044;-65
2022/07/07 12:46:48;;;;;;;15.57;1.90;;;17.60;99.90;;;;;;5080897;28;20414;-65
2022/07/07 12:49:15;;;;;;;11.10;1.60;;;17.50;99.90;;;;;;5088657;28;20043;-65
2022/07/07 12:51:44;;;;;;;9.50;2.13;;;17.50;99.90;;;;;;5089674;28;20036;-65
2022/07/07 12:54:39;;;;;;;9.57;1.77;;;17.50;99.90;;;;;;5070980;28;20131;-65
2022/07/07 12:57:08;;;;;;;13.77;2.33;;;17.40;99.90;;;;;;5047381;28;20045;-69